createdAt,value
2023-03-04T00:01:34.885Z,102725.25
2023-03-04T00:04:20.047Z,102714.09
2023-03-04T00:07:05.184Z,102696.81
2023-03-04T00:09:50.548Z,102720.09
2023-03-04T00:12:35.395Z,102712.47
2023-03-04T00:15:20.536Z,102690.16
2023-03-04T00:18:05.405Z,102699.41
2023-03-04T00:20:50.894Z,102699.47
2023-03-04T00:23:36.191Z,102698.75
2023-03-04T00:26:21.462Z,102709.81
2023-03-04T00:29:06.527Z,102701.22
2023-03-04T00:31:51.606Z,102702.97
2023-03-04T00:34:36.987Z,102697.00
2023-03-04T00:37:22.271Z,102689.25
2023-03-04T00:40:08.210Z,102692.59
2023-03-04T00:42:53.355Z,102692.69
2023-03-04T00:45:38.714Z,102677.28
2023-03-04T00:48:24.041Z,102694.47
2023-03-04T00:51:09.098Z,102672.06
2023-03-04T00:53:54.423Z,102691.91
2023-03-04T00:56:39.502Z,102681.56
2023-03-04T00:59:24.750Z,102685.81
2023-03-04T01:02:10.789Z,102674.69
2023-03-04T01:04:56.239Z,102667.75
2023-03-04T01:07:41.542Z,102684.09
2023-03-04T01:10:26.760Z,102684.16
2023-03-04T01:13:11.852Z,102665.28
2023-03-04T01:15:57.741Z,102686.78
2023-03-04T01:18:44.797Z,102671.28
2023-03-04T01:21:29.816Z,102687.59
2023-03-04T01:24:14.804Z,102673.03
2023-03-04T01:27:00.047Z,102678.97
2023-03-04T01:29:45.055Z,102686.72
2023-03-04T01:32:30.215Z,102680.66
2023-03-04T01:35:15.707Z,102655.81
2023-03-04T01:38:00.908Z,102664.38
2023-03-04T01:40:46.224Z,102675.41
2023-03-04T01:43:31.699Z,102680.59
2023-03-04T01:46:17.794Z,102673.72
2023-03-04T01:49:04.097Z,102677.16
2023-03-04T01:51:52.917Z,102676.31
2023-03-04T01:54:38.513Z,102674.72
2023-03-04T01:57:25.347Z,102652.34
2023-03-04T02:00:22.599Z,102673.72
2023-03-04T02:03:12.602Z,102676.31
2023-03-04T02:05:57.989Z,102654.72
2023-03-04T02:08:42.977Z,102662.34
2023-03-04T02:11:28.512Z,102663.31
2023-03-04T02:14:14.922Z,102650.53
2023-03-04T02:16:59.980Z,102668.63
2023-03-04T02:19:56.644Z,102649.56
2023-03-04T02:22:51.890Z,102655.63
2023-03-04T02:25:47.029Z,102632.47
2023-03-04T02:28:31.976Z,102616.25
2023-03-04T02:31:37.162Z,102646.25
2023-03-04T02:34:25.241Z,102642.81
2023-03-04T02:37:10.667Z,102651.44
2023-03-04T02:39:55.872Z,102638.41
2023-03-04T02:42:44.143Z,102640.09
2023-03-04T02:45:39.476Z,102629.69
2023-03-04T02:48:25.056Z,102625.44
2023-03-04T02:51:10.092Z,102633.09
2023-03-04T02:53:55.434Z,102621.88
2023-03-04T02:56:45.222Z,102627.88
2023-03-04T02:59:30.886Z,102629.66
2023-03-04T03:02:16.250Z,102634.91
2023-03-04T03:05:01.619Z,102630.53
2023-03-04T03:07:46.830Z,102627.25
2023-03-04T03:10:32.505Z,102633.25
2023-03-04T03:13:17.747Z,102625.44
2023-03-04T03:16:03.070Z,102622.00
2023-03-04T03:18:48.284Z,102627.13
2023-03-04T03:21:33.520Z,102617.72
2023-03-04T03:24:20.227Z,102620.25
2023-03-04T03:27:05.207Z,102620.31
2023-03-04T03:29:50.276Z,102619.41
2023-03-04T03:32:35.281Z,102616.88
2023-03-04T03:35:21.380Z,102583.44
2023-03-04T03:38:06.820Z,102611.84
2023-03-04T03:40:52.083Z,102605.69
2023-03-04T03:43:37.395Z,102608.41
2023-03-04T03:46:22.516Z,102590.34
2023-03-04T03:49:07.796Z,102585.13
2023-03-04T03:51:52.897Z,102603.25
2023-03-04T03:54:37.835Z,102598.97
2023-03-04T03:57:23.070Z,102607.50
2023-03-04T04:00:09.644Z,102597.22
2023-03-04T04:02:56.622Z,102610.09
2023-03-04T04:05:41.694Z,102615.16
2023-03-04T04:08:26.945Z,102595.44
2023-03-04T04:11:12.813Z,102619.47
2023-03-04T04:13:58.034Z,102609.22
2023-03-04T04:16:43.384Z,102601.56
2023-03-04T04:19:28.562Z,102621.28
2023-03-04T04:22:16.790Z,102622.00
2023-03-04T04:25:02.029Z,102618.56
2023-03-04T04:27:47.204Z,102593.63
2023-03-04T04:30:32.428Z,102604.13
2023-03-04T04:33:17.729Z,102617.88
2023-03-04T04:36:03.584Z,102607.63
2023-03-04T04:38:49.403Z,102629.13
2023-03-04T04:41:40.872Z,102623.09
2023-03-04T04:44:26.024Z,102626.63
2023-03-04T04:47:11.479Z,102623.16
2023-03-04T04:49:56.572Z,102627.53
2023-03-04T04:52:41.870Z,102622.41
2023-03-04T04:55:27.028Z,102600.94
2023-03-04T04:58:12.160Z,102614.63
2023-03-04T05:00:58.146Z,102635.25
2023-03-04T05:03:43.385Z,102628.34
2023-03-04T05:06:28.788Z,102630.13
2023-03-04T05:09:13.797Z,102632.63
2023-03-04T05:11:58.862Z,102636.88
2023-03-04T05:14:44.025Z,102644.56
2023-03-04T05:17:28.995Z,102635.97
2023-03-04T05:20:14.307Z,102643.03
2023-03-04T05:22:59.299Z,102643.78
2023-03-04T05:25:44.747Z,102623.97
2023-03-04T05:28:30.692Z,102640.25
2023-03-04T05:31:16.527Z,102645.47
2023-03-04T05:34:01.970Z,102641.19
2023-03-04T05:36:47.290Z,102640.38
2023-03-04T05:39:32.557Z,102624.84
2023-03-04T05:42:17.694Z,102635.06
2023-03-04T05:45:02.642Z,102622.31
2023-03-04T05:47:48.056Z,102644.66
2023-03-04T05:50:33.965Z,102645.47
2023-03-04T05:53:19.280Z,102638.69
2023-03-04T05:56:09.891Z,102654.94
2023-03-04T05:58:58.012Z,102646.31
2023-03-04T06:01:43.117Z,102629.13
2023-03-04T06:04:28.315Z,102636.09
2023-03-04T06:07:13.192Z,102647.31
2023-03-04T06:09:58.419Z,102627.59
2023-03-04T06:12:43.876Z,102648.22
2023-03-04T06:15:28.854Z,102648.22
2023-03-04T06:18:14.164Z,102649.09
2023-03-04T06:21:01.639Z,102652.53
2023-03-04T06:23:47.184Z,102638.91
2023-03-04T06:26:32.412Z,102663.75
2023-03-04T06:29:17.597Z,102636.94
2023-03-04T06:32:02.732Z,102653.31
2023-03-04T06:34:47.970Z,102660.22
2023-03-04T06:37:32.944Z,102656.78
2023-03-04T06:40:18.301Z,102622.41
2023-03-04T06:43:03.541Z,102620.66
2023-03-04T06:45:50.976Z,102642.97
2023-03-04T06:48:36.032Z,102663.59
2023-03-04T06:51:21.418Z,102669.63
2023-03-04T06:54:06.566Z,102666.16
2023-03-04T06:56:51.843Z,102661.94
2023-03-04T06:59:37.023Z,102661.16
2023-03-04T07:02:22.291Z,102644.91
2023-03-04T07:05:07.895Z,102670.75
2023-03-04T07:07:53.000Z,102671.66
2023-03-04T07:10:38.294Z,102680.25
2023-03-04T07:13:23.463Z,102676.81
2023-03-04T07:16:12.368Z,102660.47
2023-03-04T07:18:57.615Z,102680.25
2023-03-04T07:21:42.855Z,102678.63
2023-03-04T07:24:28.233Z,102688.84
2023-03-04T07:27:13.691Z,102664.66
2023-03-04T07:29:58.971Z,102690.44
2023-03-04T07:32:44.042Z,102663.81
2023-03-04T07:35:29.223Z,102696.53
2023-03-04T07:38:14.531Z,102692.97
2023-03-04T07:41:00.199Z,102656.06
2023-03-04T07:43:45.591Z,102697.22
2023-03-04T07:46:30.789Z,102678.13
2023-03-04T07:49:16.186Z,102677.44
2023-03-04T07:52:05.545Z,102702.47
2023-03-04T07:54:50.805Z,102701.56
2023-03-04T07:57:38.264Z,102697.16
2023-03-04T08:00:23.745Z,102699.72
2023-03-04T08:03:08.957Z,102702.47
2023-03-04T08:05:54.033Z,102703.16
2023-03-04T08:08:39.201Z,102702.34
2023-03-04T08:11:25.377Z,102684.34
2023-03-04T08:14:14.889Z,102705.00
2023-03-04T08:16:59.699Z,102702.38
2023-03-04T08:19:44.969Z,102708.41
2023-03-04T08:22:30.128Z,102710.00
2023-03-04T08:25:15.130Z,102706.66
2023-03-04T08:28:00.215Z,102710.06
2023-03-04T08:30:45.622Z,102714.41
2023-03-04T08:33:32.288Z,102707.56
2023-03-04T08:36:17.283Z,102712.59
2023-03-04T08:39:03.664Z,102715.16
2023-03-04T08:41:49.205Z,102725.53
2023-03-04T08:44:34.119Z,102729.88
2023-03-04T08:47:19.020Z,102728.16
2023-03-04T08:50:06.227Z,102729.00
2023-03-04T08:52:51.426Z,102726.44
2023-03-04T08:55:38.689Z,102725.66
2023-03-04T08:58:23.712Z,102692.97
2023-03-04T09:01:13.901Z,102729.03
2023-03-04T09:03:59.009Z,102711.06
2023-03-04T09:06:43.997Z,102698.91
2023-03-04T09:09:29.536Z,102728.03
2023-03-04T09:12:14.894Z,102724.53
2023-03-04T09:15:10.809Z,102721.88
2023-03-04T09:17:56.966Z,102721.00
2023-03-04T09:20:42.590Z,102712.25
2023-03-04T09:23:28.020Z,102710.25
2023-03-04T09:26:23.949Z,102710.91
2023-03-04T09:29:09.937Z,102702.97
2023-03-04T09:31:54.946Z,102715.81
2023-03-04T09:34:40.151Z,102698.41
2023-03-04T09:37:25.308Z,102692.44
2023-03-04T09:40:18.522Z,102701.78
2023-03-04T09:43:05.318Z,102697.13
2023-03-04T09:45:54.987Z,102682.06
2023-03-04T09:48:46.669Z,102700.75
2023-03-04T09:51:40.485Z,102702.88
2023-03-04T09:54:29.121Z,102699.75
2023-03-04T09:57:29.206Z,102694.97
2023-03-04T10:00:32.729Z,102717.28
2023-03-04T10:03:20.352Z,102714.59
2023-03-04T10:06:09.643Z,102710.34
2023-03-04T10:09:19.540Z,102715.72
2023-03-04T10:12:07.970Z,102719.16
2023-03-04T10:14:59.513Z,102711.88
2023-03-04T10:17:48.538Z,102701.00
2023-03-04T10:21:03.206Z,102703.59
2023-03-04T10:23:49.228Z,102697.47
2023-03-04T10:26:34.482Z,102700.75
2023-03-04T10:29:22.878Z,102702.88
2023-03-04T10:32:14.713Z,102693.06
2023-03-04T10:34:59.877Z,102697.88
2023-03-04T10:37:47.177Z,102691.78
2023-03-04T10:40:39.156Z,102662.94
2023-03-04T10:43:24.818Z,102694.53
2023-03-04T10:46:12.266Z,102687.09
2023-03-04T10:48:58.811Z,102694.06
2023-03-04T10:51:46.670Z,102671.00
2023-03-04T10:54:37.888Z,102669.22
2023-03-04T10:57:41.429Z,102685.69
2023-03-04T11:00:33.916Z,102666.06
2023-03-04T11:03:29.937Z,102687.25
2023-03-04T11:06:19.805Z,102685.38
2023-03-04T11:09:04.739Z,102681.66
2023-03-04T11:11:52.297Z,102673.75
2023-03-04T11:14:43.272Z,102673.03
2023-03-04T11:17:40.008Z,102650.66
2023-03-04T11:20:41.550Z,102651.41
2023-03-04T11:23:43.307Z,102669.47
2023-03-04T11:26:36.812Z,102674.84
2023-03-04T11:29:26.404Z,102660.00
2023-03-04T11:32:19.056Z,102660.97
2023-03-04T11:35:18.698Z,102657.16
2023-03-04T11:38:29.151Z,102659.13
2023-03-04T11:41:19.306Z,102662.22
2023-03-04T11:44:08.984Z,102658.78
2023-03-04T11:47:22.293Z,102657.94
2023-03-04T11:50:12.926Z,102659.00
2023-03-04T11:53:19.406Z,102646.16
2023-03-04T11:56:13.947Z,102646.16
2023-03-04T11:59:27.221Z,102646.34
2023-03-04T12:02:20.262Z,102647.94
2023-03-04T12:05:14.507Z,102647.03
2023-03-04T12:08:32.210Z,102637.44
2023-03-04T12:11:43.806Z,102639.00
2023-03-04T12:14:41.530Z,102608.44
2023-03-04T12:17:43.842Z,102624.44
2023-03-04T12:20:44.871Z,102639.00
2023-03-04T12:24:03.228Z,102624.34
2023-03-04T12:26:58.245Z,102625.75
2023-03-04T12:30:06.360Z,102626.41
2023-03-04T12:33:04.585Z,102623.88
2023-03-04T12:36:14.543Z,102609.78
2023-03-04T12:39:18.257Z,102596.63
2023-03-04T12:42:12.334Z,102600.06
2023-03-04T12:45:27.384Z,102589.84
2023-03-04T12:48:38.594Z,102585.16
2023-03-04T12:51:44.434Z,102586.25
2023-03-04T12:54:39.361Z,102567.34
2023-03-04T12:57:26.182Z,102584.56
2023-03-04T13:00:17.278Z,102588.31
2023-03-04T13:03:28.733Z,102579.09
2023-03-04T13:06:35.750Z,102585.22
2023-03-04T13:09:29.022Z,102572.94
2023-03-04T13:12:16.164Z,102564.22
2023-03-04T13:15:07.506Z,102568.50
2023-03-04T13:18:30.276Z,102557.94
2023-03-04T13:21:21.024Z,102553.50
2023-03-04T13:24:45.692Z,102548.06
2023-03-04T13:27:50.499Z,102550.00
2023-03-04T13:30:35.623Z,102547.50
2023-03-04T13:33:24.013Z,102543.09
2023-03-04T13:36:28.411Z,102541.44
2023-03-04T13:39:16.424Z,102538.84
2023-03-04T13:42:01.941Z,102531.84
2023-03-04T13:44:46.929Z,102531.84
2023-03-04T13:47:42.342Z,102522.06
2023-03-04T13:50:34.768Z,102505.66
2023-03-04T13:53:25.927Z,102519.19
2023-03-04T13:56:14.005Z,102517.34
2023-03-04T13:59:08.332Z,102536.56
2023-03-04T14:02:00.045Z,102525.31
2023-03-04T14:04:54.595Z,102519.09
2023-03-04T14:07:39.801Z,102503.44
2023-03-04T14:10:25.236Z,102513.28
2023-03-04T14:13:11.589Z,102503.84
2023-03-04T14:15:58.910Z,102505.75
2023-03-04T14:18:44.354Z,102504.97
2023-03-04T14:21:31.495Z,102505.03
2023-03-04T14:24:19.721Z,102497.09
2023-03-04T14:27:13.615Z,102491.91
2023-03-04T14:30:01.417Z,102496.19
2023-03-04T14:32:48.593Z,102490.66
2023-03-04T14:35:34.625Z,102495.31
2023-03-04T14:38:38.596Z,102504.91
2023-03-04T14:41:35.525Z,102510.31
2023-03-04T14:44:20.687Z,102482.97
2023-03-04T14:47:11.625Z,102496.88
2023-03-04T14:49:56.849Z,102466.91
2023-03-04T14:52:44.968Z,102495.31
2023-03-04T14:55:30.447Z,102497.06
2023-03-04T14:58:28.942Z,102498.84
2023-03-04T15:01:23.520Z,102495.38
2023-03-04T15:04:11.705Z,102482.28
2023-03-04T15:06:56.675Z,102484.84
2023-03-04T15:09:42.372Z,102459.06
2023-03-04T15:12:30.745Z,102469.41
2023-03-04T15:15:37.664Z,102477.13
2023-03-04T15:18:27.854Z,102477.19
2023-03-04T15:21:38.513Z,102473.69
2023-03-04T15:24:23.734Z,102475.34
2023-03-04T15:27:12.665Z,102467.34
2023-03-04T15:29:59.488Z,102466.31
2023-03-04T15:32:44.798Z,102463.88
2023-03-04T15:35:32.959Z,102463.88
2023-03-04T15:38:18.225Z,102462.28
2023-03-04T15:41:03.605Z,102462.28
2023-03-04T15:43:48.882Z,102463.25
2023-03-04T15:46:34.210Z,102458.88
2023-03-04T15:49:19.522Z,102455.59
2023-03-04T15:52:06.258Z,102454.88
2023-03-04T15:54:51.814Z,102446.53
2023-03-04T15:57:36.792Z,102439.72
2023-03-04T16:00:22.002Z,102453.16
2023-03-04T16:03:07.100Z,102448.72
2023-03-04T16:05:52.950Z,102443.44
2023-03-04T16:08:39.081Z,102449.50
2023-03-04T16:11:27.328Z,102435.81
2023-03-04T16:14:16.857Z,102417.66
2023-03-04T16:17:02.199Z,102433.75
2023-03-04T16:19:47.643Z,102430.34
2023-03-04T16:22:32.609Z,102430.50
2023-03-04T16:25:18.761Z,102421.63
2023-03-04T16:28:04.131Z,102424.25
2023-03-04T16:30:49.740Z,102421.63
2023-03-04T16:33:34.814Z,102415.66
2023-03-04T16:36:23.433Z,102419.97
2023-03-04T16:39:18.713Z,102415.16
2023-03-04T16:42:03.934Z,102417.59
2023-03-04T16:44:49.620Z,102425.47
2023-03-04T16:47:34.524Z,102422.78
2023-03-04T16:50:27.222Z,102423.03
2023-03-04T16:53:28.756Z,102417.22
2023-03-04T16:56:16.534Z,102425.13
2023-03-04T16:59:01.773Z,102431.16
2023-03-04T17:01:47.636Z,102414.50
2023-03-04T17:04:32.708Z,102422.31
2023-03-04T17:07:17.701Z,102424.84
2023-03-04T17:10:02.956Z,102421.44
2023-03-04T17:12:48.040Z,102426.59
2023-03-04T17:15:33.321Z,102428.44
2023-03-04T17:18:18.593Z,102429.28
2023-03-04T17:21:05.659Z,102425.00
2023-03-04T17:23:51.086Z,102429.47
2023-03-04T17:26:36.242Z,102403.97
2023-03-04T17:29:21.462Z,102423.53
2023-03-04T17:32:06.868Z,102421.75
2023-03-04T17:34:54.655Z,102423.53
2023-03-04T17:37:40.653Z,102404.75
2023-03-04T17:40:25.813Z,102403.16
2023-03-04T17:43:13.951Z,102423.75
2023-03-04T17:46:05.039Z,102413.41
2023-03-04T17:48:51.886Z,102415.25
2023-03-04T17:51:38.933Z,102422.47
2023-03-04T17:54:23.779Z,102420.63
2023-03-04T17:57:10.038Z,102413.50
2023-03-04T17:59:56.169Z,102421.47
2023-03-04T18:02:41.399Z,102413.75
2023-03-04T18:05:26.283Z,102425.88
2023-03-04T18:08:11.342Z,102408.81
2023-03-04T18:10:56.537Z,102432.09
2023-03-04T18:13:43.446Z,102419.91
2023-03-04T18:16:28.990Z,102411.50
2023-03-04T18:19:14.023Z,102435.38
2023-03-04T18:21:59.193Z,102427.63
2023-03-04T18:24:44.364Z,102411.44
2023-03-04T18:27:29.371Z,102416.38
2023-03-04T18:30:20.925Z,102425.03
2023-03-04T18:33:06.087Z,102420.66
2023-03-04T18:35:57.544Z,102418.88
2023-03-04T18:38:42.490Z,102372.56
2023-03-04T18:41:28.296Z,102400.03
2023-03-04T18:44:13.483Z,102396.63
2023-03-04T18:46:58.517Z,102393.19
2023-03-04T18:49:45.755Z,102369.44
2023-03-04T18:52:31.093Z,102409.72
2023-03-04T18:55:18.014Z,102402.94
2023-03-04T18:58:03.867Z,102403.16
2023-03-04T19:00:48.905Z,102408.06
2023-03-04T19:03:37.602Z,102398.44
2023-03-04T19:06:24.890Z,102409.50
2023-03-04T19:09:10.480Z,102406.13
2023-03-04T19:11:55.945Z,102411.53
2023-03-04T19:14:41.009Z,102414.13
2023-03-04T19:17:28.676Z,102414.94
2023-03-04T19:20:15.024Z,102423.63
2023-03-04T19:23:00.037Z,102412.34
2023-03-04T19:25:45.102Z,102425.47
2023-03-04T19:28:30.519Z,102418.00
2023-03-04T19:31:15.615Z,102418.91
2023-03-04T19:34:00.817Z,102393.88
2023-03-04T19:36:45.727Z,102399.69
2023-03-04T19:39:30.727Z,102400.63
2023-03-04T19:42:16.544Z,102401.56
2023-03-04T19:45:03.460Z,102391.28
2023-03-04T19:47:48.389Z,102399.75
2023-03-04T19:50:33.617Z,102404.06
2023-03-04T19:53:18.807Z,102399.84
2023-03-04T19:56:04.335Z,102396.34
2023-03-04T19:58:50.133Z,102391.91
2023-03-04T20:01:37.499Z,102402.28
2023-03-04T20:04:23.038Z,102395.41
2023-03-04T20:07:08.793Z,102404.97
2023-03-04T20:09:57.484Z,102400.78
2023-03-04T20:12:42.515Z,102397.28
2023-03-04T20:15:27.856Z,102384.66
2023-03-04T20:18:12.938Z,102401.75
2023-03-04T20:20:58.310Z,102394.91
2023-03-04T20:23:43.636Z,102399.28
2023-03-04T20:26:30.251Z,102370.81
2023-03-04T20:29:15.530Z,102398.28
2023-03-04T20:32:01.429Z,102394.91
2023-03-04T20:34:49.421Z,102393.13
2023-03-04T20:37:36.098Z,102393.13
2023-03-04T20:40:21.184Z,102394.00
2023-03-04T20:43:06.857Z,102392.22
2023-03-04T20:45:51.943Z,102384.44
2023-03-04T20:48:36.887Z,102381.88
2023-03-04T20:51:22.839Z,102376.69
2023-03-04T20:54:09.535Z,102354.44
2023-03-04T20:56:54.924Z,102362.25
2023-03-04T20:59:41.129Z,102371.59
2023-03-04T21:02:26.030Z,102383.72
2023-03-04T21:05:11.263Z,102367.44
2023-03-04T21:07:56.599Z,102366.66
2023-03-04T21:10:42.048Z,102383.91
2023-03-04T21:13:30.459Z,102361.56
2023-03-04T21:16:17.393Z,102388.22
2023-03-04T21:19:02.849Z,102380.41
2023-03-04T21:21:49.703Z,102376.94
2023-03-04T21:24:36.355Z,102383.03
2023-03-04T21:27:21.594Z,102381.28
2023-03-04T21:30:07.334Z,102383.91
2023-03-04T21:32:53.413Z,102386.56
2023-03-04T21:35:38.510Z,102360.72
2023-03-04T21:38:23.789Z,102371.06
2023-03-04T21:41:14.383Z,102383.06
2023-03-04T21:43:59.250Z,102372.72
2023-03-04T21:46:44.237Z,102367.59
2023-03-04T21:49:29.619Z,102341.91
2023-03-04T21:52:14.743Z,102335.78
2023-03-04T21:55:00.647Z,102356.31
2023-03-04T21:57:45.748Z,102357.13
2023-03-04T22:00:31.138Z,102357.97
2023-03-04T22:03:16.502Z,102346.13
2023-03-04T22:06:05.206Z,102341.66
2023-03-04T22:08:52.320Z,102352.06
2023-03-04T22:11:37.676Z,102351.16
2023-03-04T22:14:22.774Z,102335.69
2023-03-04T22:17:07.945Z,102346.88
2023-03-04T22:19:53.641Z,102344.34
2023-03-04T22:22:38.811Z,102338.28
2023-03-04T22:25:23.930Z,102345.28
2023-03-04T22:28:09.235Z,102330.59
2023-03-04T22:30:56.038Z,102327.22
2023-03-04T22:33:41.244Z,102328.09
2023-03-04T22:36:28.713Z,102322.94
2023-03-04T22:39:16.928Z,102327.25
2023-03-04T22:42:01.884Z,102326.25
2023-03-04T22:44:47.185Z,102318.50
2023-03-04T22:47:32.286Z,102321.84
2023-03-04T22:50:18.316Z,102316.72
2023-03-04T22:53:06.709Z,102309.00
2023-03-04T22:55:57.539Z,102284.22
2023-03-04T22:58:44.683Z,102302.00
2023-03-04T23:01:29.729Z,102300.22
2023-03-04T23:04:14.940Z,102301.13
2023-03-04T23:06:59.957Z,102300.28
2023-03-04T23:09:45.138Z,102291.59
2023-03-04T23:12:32.327Z,102294.28
2023-03-04T23:15:18.696Z,102290.81
2023-03-04T23:18:03.913Z,102287.41
2023-03-04T23:20:49.064Z,102293.41
2023-03-04T23:23:35.130Z,102282.25
2023-03-04T23:26:23.002Z,102267.75
2023-03-04T23:29:11.335Z,102262.38
2023-03-04T23:31:56.543Z,102265.66
2023-03-04T23:34:42.140Z,102260.63
2023-03-04T23:37:27.416Z,102269.28
2023-03-04T23:40:13.311Z,102246.19
2023-03-04T23:42:58.588Z,102274.56
2023-03-04T23:45:44.209Z,102265.97
2023-03-04T23:48:29.536Z,102268.69
2023-03-04T23:51:20.852Z,102259.97
2023-03-04T23:54:05.736Z,102224.25
2023-03-04T23:56:51.087Z,102257.47
2023-03-04T23:59:38.621Z,102263.66
